• Join FlightAware (Why Join?)
  • Login
  • US Flag 
10:26PM EDT


 

Airport Tracker/Info


-or-


 

Live Flight TrackerFlight Track Log ✈ EGF4260 ✈ 28-Apr-2013 ✈ KORD - KCVG

Flight Track Log - Related Links

Times and Time Zones

All times are in EDT time to prevent confusion due to time zone crossing. See the EGF4260 flight status page for this flight to view local times or setup timezone preferences in your user account.

Time Position Orientation Groundspeed Altitude Reporting Facility
EDT Latitude Longitude Course Direction KTS MPH feet Rate Location/Type
04:39PM 41.9333 -87.9167 173° South 183 211 1,900  Level Chicago TRACON
04:40PM 41.8667 -87.9000 169° South 224 258 4,200 1,800 Climbing Chicago TRACON
04:41PM 41.7197 -87.6012 157° South  Level Estimated
04:41PM 41.8164 -87.9033 183° South 240 276 5,500  Level Chicago Center
04:42PM 41.6322 -87.4999 156° South  Level Estimated
04:42PM 41.7308 -87.8489 155° Southeast 286 329 8,500  Level Chicago Center
04:43PM 41.5446 -87.3989 159° South  Level Estimated
04:43PM 41.6636 -87.7847 145° Southeast 296 341 10,500  Level Chicago Center
04:44PM 41.4569 -87.2982 173° South  Level Estimated
04:44PM 41.5906 -87.7206 147° Southeast 309 356 12,500  Level Chicago Center
04:45PM 41.5092 -87.6561 149° Southeast 333 383 13,600 960 Climbing Chicago Center
04:46PM 41.4200 -87.5864 150° Southeast 362 417 14,600 960 Climbing Chicago Center
04:47PM 41.3269 -87.5142 150° Southeast 382 440 15,700 1,020 Climbing Chicago Center
04:48PM 41.2317 -87.4397 150° Southeast 394 453 16,800 1,440 Climbing Chicago Center
04:49PM 41.1147 -87.3500 150° Southeast 403 464 18,700 1,620 Climbing Chicago Center
04:50PM 41.0189 -87.2761 150° Southeast 401 461 20,200 1,440 Climbing Chicago Center
04:51PM 40.9222 -87.2028 150° Southeast 402 463 21,700 1,260 Climbing Chicago Center
04:52PM 40.8253 -87.1272 149° Southeast 406 467 22,900 600 Climbing Chicago Center
04:53PM 40.7228 -87.0489 150° Southeast 426 490 23,000  Climbing Chicago Center
04:54PM 40.6083 -86.9636 150° Southeast 454 522 23,000  Level Chicago Center
04:56PM 40.4817 -86.8672 150° Southeast 449 517 23,000  Level Chicago Center
04:57PM 40.3736 -86.7850 150° Southeast 446 513 23,000  Level Chicago Center
04:58PM 40.2647 -86.7036 150° Southeast 447 514 23,000  Level Chicago Center
04:59PM 40.1567 -86.6233 150° Southeast 444 511 23,000  Level Chicago Center
04:59PM 40.0647 -86.5536 150° Southeast 446 513 23,000  Level Indianapolis Center
05:00PM 39.9561 -86.4722 150° Southeast 448 516 23,000  Level Indianapolis Center
05:02PM 39.8447 -86.3892 150° Southeast 457 526 23,000 -1,080 Level Indianapolis Center
05:03PM 39.7667 -86.2167 120° Southeast 449 517 20,700 -2,400 Descending Indianapolis TRACON
05:04PM 39.7239 -86.0981 115° Southeast 436 502 18,200 -2,820 Descending Indianapolis Center
05:05PM 39.6778 -85.9578 113° Southeast 421 484 15,200 -2,460 Descending Indianapolis Center
05:06PM 39.6233 -85.7986 114° Southeast 413 475 13,200 -1,500 Descending Indianapolis Center
05:07PM 39.5803 -85.6708 114° Southeast 388 447 12,100 -1,080 Descending Indianapolis Center
05:08PM 39.5372 -85.5414 113° Southeast 388 447 11,000 -540 Descending Indianapolis Center
05:09PM 39.4922 -85.4189 115° Southeast 377 434 11,000 -300 Level Indianapolis Center
05:10PM 39.4603 -85.2947 108° East 363 418 10,400 -840 Descending Indianapolis Center
05:11PM 39.4353 -85.1928 108° East 301 346 9,400 -1,080 Descending Indianapolis Center
05:12PM 39.4100 -85.0933 108° East 291 335 8,200 -1,620 Descending Indianapolis Center
05:13PM 39.3744 -85.0042 117° Southeast 281 323 6,100 -1,560 Descending Indianapolis Center
05:14PM 39.3297 -84.9033 120° Southeast 281 323 5,000 -840 Descending Indianapolis Center
05:14PM 39.3167 -84.8667 115° Southeast 287 330 5,000 -960 Level Cincinnati TRACON
05:15PM 39.3000 -84.7667 102° East 276 318 3,800 -1,020 Descending Cincinnati TRACON
05:16PM 39.2833 -84.6667 102° East 279 321 3,000 -840 Descending Cincinnati TRACON